sensor_id;sensor_type;location;lat;lon;timestamp;pressure;altitude;pressure_sealevel;temperature;humidity
24746;BME280;12845;52.042;6.838;2023-02-24T00:01:49;-18087.25;;;2.21;100.00
24746;BME280;12845;52.042;6.838;2023-02-24T00:04:24;-18086.72;;;2.19;100.00
24746;BME280;12845;52.042;6.838;2023-02-24T00:06:49;-18084.06;;;2.10;100.00
24746;BME280;12845;52.042;6.838;2023-02-24T00:09:16;-18082.69;;;2.05;100.00
24746;BME280;12845;52.042;6.838;2023-02-24T00:11:43;-18082.56;;;2.04;100.00
24746;BME280;12845;52.042;6.838;2023-02-24T00:14:10;-18082.13;;;2.02;100.00
24746;BME280;12845;52.042;6.838;2023-02-24T00:16:36;-18082.41;;;2.03;100.00
24746;BME280;12845;52.042;6.838;2023-02-24T00:19:02;-18081.88;;;2.01;100.00
24746;BME280;12845;52.042;6.838;2023-02-24T00:21:28;-18081.03;;;1.98;100.00
24746;BME280;12845;52.042;6.838;2023-02-24T00:23:53;-18080.47;;;1.96;100.00
24746;BME280;12845;52.042;6.838;2023-02-24T00:26:19;-18079.94;;;1.94;100.00
24746;BME280;12845;52.042;6.838;2023-02-24T00:28:45;-18079.22;;;1.92;100.00
24746;BME280;12845;52.042;6.838;2023-02-24T00:31:14;-18079.66;;;1.93;100.00
24746;BME280;12845;52.042;6.838;2023-02-24T00:33:40;-18077.56;;;1.86;100.00
24746;BME280;12845;52.042;6.838;2023-02-24T00:38:32;-18078.00;;;1.87;100.00
24746;BME280;12845;52.042;6.838;2023-02-24T00:41:00;-18076.75;;;1.83;100.00
24746;BME280;12845;52.042;6.838;2023-02-24T00:43:26;-18075.63;;;1.78;100.00
24746;BME280;12845;52.042;6.838;2023-02-24T00:45:52;-18076.59;;;1.82;100.00
24746;BME280;12845;52.042;6.838;2023-02-24T00:48:17;-18075.78;;;1.79;100.00
24746;BME280;12845;52.042;6.838;2023-02-24T00:50:42;-18076.06;;;1.80;100.00
24746;BME280;12845;52.042;6.838;2023-02-24T00:53:08;-18076.75;;;1.83;100.00
24746;BME280;12845;52.042;6.838;2023-02-24T00:55:33;-18075.91;;;1.79;100.00
24746;BME280;12845;52.042;6.838;2023-02-24T00:58:03;-18075.34;;;1.77;100.00
24746;BME280;12845;52.042;6.838;2023-02-24T01:00:31;-18073.84;;;1.72;100.00
24746;BME280;12845;52.042;6.838;2023-02-24T01:03:00;-18072.44;;;1.67;100.00
24746;BME280;12845;52.042;6.838;2023-02-24T01:05:25;-18070.66;;;1.60;100.00
24746;BME280;12845;52.042;6.838;2023-02-24T01:07:52;-18068.84;;;1.53;100.00
24746;BME280;12845;52.042;6.838;2023-02-24T01:10:17;-18066.09;;;1.43;100.00
24746;BME280;12845;52.042;6.838;2023-02-24T01:12:44;-18066.38;;;1.44;100.00
24746;BME280;12845;52.042;6.838;2023-02-24T01:15:18;-18064.97;;;1.39;100.00
24746;BME280;12845;52.042;6.838;2023-02-24T01:17:45;-18064.44;;;1.37;100.00
24746;BME280;12845;52.042;6.838;2023-02-24T01:20:10;-18064.28;;;1.37;100.00
24746;BME280;12845;52.042;6.838;2023-02-24T01:22:41;-18063.88;;;1.35;100.00
24746;BME280;12845;52.042;6.838;2023-02-24T01:25:06;-18064.16;;;1.36;100.00
24746;BME280;12845;52.042;6.838;2023-02-24T01:27:33;-18064.97;;;1.39;100.00
24746;BME280;12845;52.042;6.838;2023-02-24T01:30:01;-18063.88;;;1.35;100.00
24746;BME280;12845;52.042;6.838;2023-02-24T01:32:26;-18062.75;;;1.31;100.00
24746;BME280;12845;52.042;6.838;2023-02-24T01:34:55;-18063.59;;;1.34;100.00
24746;BME280;12845;52.042;6.838;2023-02-24T01:37:21;-18063.88;;;1.35;100.00
24746;BME280;12845;52.042;6.838;2023-02-24T01:39:46;-18062.22;;;1.29;100.00
24746;BME280;12845;52.042;6.838;2023-02-24T01:42:13;-18061.94;;;1.28;100.00
24746;BME280;12845;52.042;6.838;2023-02-24T01:47:07;-18062.34;;;1.29;100.00
24746;BME280;12845;52.042;6.838;2023-02-24T01:49:35;-18060.97;;;1.24;100.00
24746;BME280;12845;52.042;6.838;2023-02-24T01:52:12;-18059.16;;;1.18;100.00
24746;BME280;12845;52.042;6.838;2023-02-24T01:54:41;-18059.03;;;1.17;100.00
24746;BME280;12845;52.042;6.838;2023-02-24T01:57:08;-18060.28;;;1.22;100.00
24746;BME280;12845;52.042;6.838;2023-02-24T01:59:34;-18060.00;;;1.21;100.00
24746;BME280;12845;52.042;6.838;2023-02-24T02:02:01;-18060.00;;;1.21;100.00
24746;BME280;12845;52.042;6.838;2023-02-24T02:04:35;-18058.34;;;1.15;100.00
24746;BME280;12845;52.042;6.838;2023-02-24T02:07:02;-18058.88;;;1.17;100.00
24746;BME280;12845;52.042;6.838;2023-02-24T02:09:28;-18056.94;;;1.09;100.00
24746;BME280;12845;52.042;6.838;2023-02-24T02:11:53;-18054.47;;;1.00;100.00
24746;BME280;12845;52.042;6.838;2023-02-24T02:14:21;-18054.47;;;1.00;100.00
24746;BME280;12845;52.042;6.838;2023-02-24T02:16:57;-18052.78;;;0.94;100.00
24746;BME280;12845;52.042;6.838;2023-02-24T02:24:55;-18052.66;;;0.94;100.00
24746;BME280;12845;52.042;6.838;2023-02-24T02:30:11;-18050.56;;;0.86;100.00
24746;BME280;12845;52.042;6.838;2023-02-24T02:35:45;-18051.13;;;0.88;100.00
24746;BME280;12845;52.042;6.838;2023-02-24T02:38:18;-18051.28;;;0.88;100.00
24746;BME280;12845;52.042;6.838;2023-02-24T02:45:54;-18050.84;;;0.87;100.00
24746;BME280;12845;52.042;6.838;2023-02-24T02:51:08;-18048.22;;;0.77;100.00
24746;BME280;12845;52.042;6.838;2023-02-24T02:56:11;-18049.19;;;0.81;100.00
24746;BME280;12845;52.042;6.838;2023-02-24T02:58:41;-18048.91;;;0.80;100.00
24746;BME280;12845;52.042;6.838;2023-02-24T03:01:10;-18049.59;;;0.82;100.00
24746;BME280;12845;52.042;6.838;2023-02-24T03:03:40;-18049.19;;;0.81;100.00
24746;BME280;12845;52.042;6.838;2023-02-24T03:06:10;-18048.22;;;0.77;100.00
24746;BME280;12845;52.042;6.838;2023-02-24T03:08:38;-18047.69;;;0.75;100.00
24746;BME280;12845;52.042;6.838;2023-02-24T03:11:08;-18047.81;;;0.76;100.00
24746;BME280;12845;52.042;6.838;2023-02-24T03:13:37;-18048.78;;;0.79;100.00
24746;BME280;12845;52.042;6.838;2023-02-24T03:16:05;-18049.19;;;0.81;100.00
24746;BME280;12845;52.042;6.838;2023-02-24T03:18:34;-18046.84;;;0.72;100.00
24746;BME280;12845;52.042;6.838;2023-02-24T03:21:05;-18048.38;;;0.78;100.00
24746;BME280;12845;52.042;6.838;2023-02-24T03:23:32;-18046.84;;;0.72;100.00
24746;BME280;12845;52.042;6.838;2023-02-24T03:26:07;-18046.56;;;0.71;100.00
24746;BME280;12845;52.042;6.838;2023-02-24T03:28:43;-18046.28;;;0.70;100.00
24746;BME280;12845;52.042;6.838;2023-02-24T03:31:15;-18043.94;;;0.61;100.00
24746;BME280;12845;52.042;6.838;2023-02-24T03:33:49;-18045.03;;;0.65;100.00
24746;BME280;12845;52.042;6.838;2023-02-24T03:36:20;-18045.03;;;0.65;100.00
24746;BME280;12845;52.042;6.838;2023-02-24T03:38:45;-18044.34;;;0.63;100.00
24746;BME280;12845;52.042;6.838;2023-02-24T03:41:14;-18046.16;;;0.70;100.00
24746;BME280;12845;52.042;6.838;2023-02-24T03:43:42;-18046.44;;;0.71;100.00
24746;BME280;12845;52.042;6.838;2023-02-24T03:46:09;-18046.44;;;0.71;100.00
24746;BME280;12845;52.042;6.838;2023-02-24T03:48:36;-18046.84;;;0.72;100.00
24746;BME280;12845;52.042;6.838;2023-02-24T03:51:02;-18045.47;;;0.67;100.00
24746;BME280;12845;52.042;6.838;2023-02-24T04:08:32;-18044.34;;;0.63;100.00
24746;BME280;12845;52.042;6.838;2023-02-24T04:11:01;-18044.63;;;0.64;100.00
24746;BME280;12845;52.042;6.838;2023-02-24T04:13:34;-18045.31;;;0.66;100.00
24746;BME280;12845;52.042;6.838;2023-02-24T04:16:10;-18046.16;;;0.70;100.00
24746;BME280;12845;52.042;6.838;2023-02-24T04:18:41;-18044.75;;;0.64;100.00
24746;BME280;12845;52.042;6.838;2023-02-24T04:21:09;-18043.78;;;0.61;100.00
24746;BME280;12845;52.042;6.838;2023-02-24T04:23:36;-18044.22;;;0.62;100.00
24746;BME280;12845;52.042;6.838;2023-02-24T04:26:03;-18044.06;;;0.62;100.00
24746;BME280;12845;52.042;6.838;2023-02-24T04:28:28;-18045.88;;;0.68;100.00
24746;BME280;12845;52.042;6.838;2023-02-24T04:30:56;-18045.03;;;0.65;100.00
24746;BME280;12845;52.042;6.838;2023-02-24T04:33:23;-18045.31;;;0.66;100.00
24746;BME280;12845;52.042;6.838;2023-02-24T04:35:48;-18045.59;;;0.67;100.00
24746;BME280;12845;52.042;6.838;2023-02-24T04:38:14;-18044.50;;;0.63;100.00
24746;BME280;12845;52.042;6.838;2023-02-24T04:40:40;-18044.50;;;0.63;100.00
24746;BME280;12845;52.042;6.838;2023-02-24T04:43:06;-18045.19;;;0.66;100.00
24746;BME280;12845;52.042;6.838;2023-02-24T04:45:32;-18046.44;;;0.71;100.00
24746;BME280;12845;52.042;6.838;2023-02-24T04:47:58;-18046.16;;;0.70;100.00
24746;BME280;12845;52.042;6.838;2023-02-24T04:50:28;-18047.69;;;0.75;100.00
24746;BME280;12845;52.042;6.838;2023-02-24T04:52:58;-18047.25;;;0.74;100.00
24746;BME280;12845;52.042;6.838;2023-02-24T04:55:27;-18047.25;;;0.74;100.00
24746;BME280;12845;52.042;6.838;2023-02-24T04:57:54;-18048.09;;;0.77;100.00
24746;BME280;12845;52.042;6.838;2023-02-24T05:00:20;-18047.53;;;0.75;100.00
24746;BME280;12845;52.042;6.838;2023-02-24T05:02:47;-18049.47;;;0.82;100.00
24746;BME280;12845;52.042;6.838;2023-02-24T05:05:13;-18050.03;;;0.84;100.00
24746;BME280;12845;52.042;6.838;2023-02-24T05:07:39;-18049.47;;;0.82;100.00
24746;BME280;12845;52.042;6.838;2023-02-24T05:12:32;-18050.03;;;0.84;100.00
24746;BME280;12845;52.042;6.838;2023-02-24T05:14:57;-18050.31;;;0.85;100.00
24746;BME280;12845;52.042;6.838;2023-02-24T05:17:28;-18050.84;;;0.87;100.00
24746;BME280;12845;52.042;6.838;2023-02-24T05:19:55;-18050.03;;;0.84;100.00
24746;BME280;12845;52.042;6.838;2023-02-24T05:22:38;-18051.28;;;0.88;100.00
24746;BME280;12845;52.042;6.838;2023-02-24T05:25:04;-18051.56;;;0.89;100.00
24746;BME280;12845;52.042;6.838;2023-02-24T05:27:30;-18051.97;;;0.91;100.00
24746;BME280;12845;52.042;6.838;2023-02-24T05:29:55;-18051.41;;;0.89;100.00
24746;BME280;12845;52.042;6.838;2023-02-24T05:32:20;-18051.81;;;0.90;100.00
24746;BME280;12845;52.042;6.838;2023-02-24T05:34:46;-18051.97;;;0.91;100.00
24746;BME280;12845;52.042;6.838;2023-02-24T05:37:11;-18052.78;;;0.94;100.00
24746;BME280;12845;52.042;6.838;2023-02-24T05:39:36;-18052.78;;;0.94;100.00
24746;BME280;12845;52.042;6.838;2023-02-24T05:42:02;-18053.50;;;0.97;100.00
24746;BME280;12845;52.042;6.838;2023-02-24T05:44:30;-18053.06;;;0.95;100.00
24746;BME280;12845;52.042;6.838;2023-02-24T05:46:56;-18053.22;;;0.96;100.00
24746;BME280;12845;52.042;6.838;2023-02-24T05:49:25;-18054.03;;;0.99;100.00
24746;BME280;12845;52.042;6.838;2023-02-24T05:51:54;-18054.75;;;1.01;100.00
24746;BME280;12845;52.042;6.838;2023-02-24T05:54:24;-18055.44;;;1.04;100.00
24746;BME280;12845;52.042;6.838;2023-02-24T05:56:52;-18055.00;;;1.02;100.00
24746;BME280;12845;52.042;6.838;2023-02-24T05:59:21;-18055.69;;;1.05;100.00
24746;BME280;12845;52.042;6.838;2023-02-24T06:01:46;-18055.56;;;1.04;100.00
24746;BME280;12845;52.042;6.838;2023-02-24T06:04:12;-18056.41;;;1.07;100.00
24746;BME280;12845;52.042;6.838;2023-02-24T06:06:46;-18058.06;;;1.13;100.00
24746;BME280;12845;52.042;6.838;2023-02-24T06:09:17;-18058.63;;;1.16;100.00
24746;BME280;12845;52.042;6.838;2023-02-24T06:11:42;-18058.19;;;1.14;100.00
24746;BME280;12845;52.042;6.838;2023-02-24T06:14:09;-18058.63;;;1.16;100.00
24746;BME280;12845;52.042;6.838;2023-02-24T06:16:35;-18058.88;;;1.17;100.00
24746;BME280;12845;52.042;6.838;2023-02-24T06:19:01;-18060.28;;;1.22;100.00
24746;BME280;12845;52.042;6.838;2023-02-24T06:21:27;-18061.25;;;1.25;100.00
24746;BME280;12845;52.042;6.838;2023-02-24T06:23:57;-18060.81;;;1.24;100.00
24746;BME280;12845;52.042;6.838;2023-02-24T06:26:23;-18061.94;;;1.28;100.00
24746;BME280;12845;52.042;6.838;2023-02-24T06:28:50;-18063.19;;;1.32;100.00
24746;BME280;12845;52.042;6.838;2023-02-24T06:31:18;-18063.03;;;1.32;100.00
24746;BME280;12845;52.042;6.838;2023-02-24T06:33:45;-18064.44;;;1.37;100.00
24746;BME280;12845;52.042;6.838;2023-02-24T06:36:10;-18064.84;;;1.39;100.00
24746;BME280;12845;52.042;6.838;2023-02-24T06:38:38;-18063.47;;;1.33;100.00
24746;BME280;12845;52.042;6.838;2023-02-24T06:41:04;-18063.88;;;1.35;100.00
24746;BME280;12845;52.042;6.838;2023-02-24T06:43:35;-18065.81;;;1.42;100.00
24746;BME280;12845;52.042;6.838;2023-02-24T06:46:01;-18065.53;;;1.41;100.00
24746;BME280;12845;52.042;6.838;2023-02-24T06:48:26;-18065.94;;;1.43;100.00
24746;BME280;12845;52.042;6.838;2023-02-24T06:50:52;-18066.91;;;1.46;100.00
24746;BME280;12845;52.042;6.838;2023-02-24T06:53:19;-18068.31;;;1.51;100.00
24746;BME280;12845;52.042;6.838;2023-02-24T06:55:45;-18068.84;;;1.53;100.00
24746;BME280;12845;52.042;6.838;2023-02-24T06:58:16;-18069.28;;;1.55;100.00
24746;BME280;12845;52.042;6.838;2023-02-24T07:00:41;-18069.81;;;1.57;100.00
24746;BME280;12845;52.042;6.838;2023-02-24T07:03:13;-18070.09;;;1.58;100.00
24746;BME280;12845;52.042;6.838;2023-02-24T07:05:42;-18071.34;;;1.63;100.00
24746;BME280;12845;52.042;6.838;2023-02-24T07:08:14;-18072.03;;;1.65;100.00
24746;BME280;12845;52.042;6.838;2023-02-24T07:10:41;-18072.59;;;1.67;100.00
24746;BME280;12845;52.042;6.838;2023-02-24T07:13:06;-18072.88;;;1.68;100.00
24746;BME280;12845;52.042;6.838;2023-02-24T07:15:34;-18073.56;;;1.71;100.00
24746;BME280;12845;52.042;6.838;2023-02-24T07:18:01;-18074.81;;;1.75;100.00
24746;BME280;12845;52.042;6.838;2023-02-24T07:20:27;-18075.78;;;1.79;100.00
24746;BME280;12845;52.042;6.838;2023-02-24T07:22:54;-18076.59;;;1.82;100.00
24746;BME280;12845;52.042;6.838;2023-02-24T07:25:19;-18076.19;;;1.80;100.00
24746;BME280;12845;52.042;6.838;2023-02-24T07:27:57;-18076.88;;;1.83;100.00
24746;BME280;12845;52.042;6.838;2023-02-24T07:30:25;-18076.59;;;1.82;100.00
24746;BME280;12845;52.042;6.838;2023-02-24T07:32:51;-18077.56;;;1.86;100.00
24746;BME280;12845;52.042;6.838;2023-02-24T07:35:19;-18078.81;;;1.90;100.00
24746;BME280;12845;52.042;6.838;2023-02-24T07:37:45;-18079.09;;;1.91;100.00
24746;BME280;12845;52.042;6.838;2023-02-24T07:40:12;-18079.94;;;1.94;100.00
24746;BME280;12845;52.042;6.838;2023-02-24T07:42:41;-18080.19;;;1.95;100.00
24746;BME280;12845;52.042;6.838;2023-02-24T07:45:06;-18081.16;;;1.99;100.00
24746;BME280;12845;52.042;6.838;2023-02-24T07:47:32;-18081.16;;;1.99;100.00
24746;BME280;12845;52.042;6.838;2023-02-24T07:49:57;-18081.59;;;2.00;100.00
24746;BME280;12845;52.042;6.838;2023-02-24T07:52:24;-18081.88;;;2.01;100.00
24746;BME280;12845;52.042;6.838;2023-02-24T07:54:49;-18082.69;;;2.05;100.00
24746;BME280;12845;52.042;6.838;2023-02-24T07:57:14;-18083.25;;;2.07;100.00
24746;BME280;12845;52.042;6.838;2023-02-24T07:59:42;-18083.94;;;2.09;100.00
24746;BME280;12845;52.042;6.838;2023-02-24T08:02:11;-18084.34;;;2.11;100.00
24746;BME280;12845;52.042;6.838;2023-02-24T08:04:37;-18084.22;;;2.10;100.00
24746;BME280;12845;52.042;6.838;2023-02-24T08:07:05;-18085.03;;;2.13;100.00
24746;BME280;12845;52.042;6.838;2023-02-24T08:09:37;-18085.47;;;2.15;100.00
24746;BME280;12845;52.042;6.838;2023-02-24T08:12:30;-18086.16;;;2.17;100.00
24746;BME280;12845;52.042;6.838;2023-02-24T08:14:59;-18085.88;;;2.16;100.00
24746;BME280;12845;52.042;6.838;2023-02-24T08:17:25;-18086.97;;;2.20;100.00
24746;BME280;12845;52.042;6.838;2023-02-24T08:19:51;-18086.72;;;2.19;100.00
24746;BME280;12845;52.042;6.838;2023-02-24T08:22:37;-18087.66;;;2.23;100.00
24746;BME280;12845;52.042;6.838;2023-02-24T08:25:03;-18087.41;;;2.22;100.00
24746;BME280;12845;52.042;6.838;2023-02-24T08:27:31;-18090.03;;;2.32;100.00
24746;BME280;12845;52.042;6.838;2023-02-24T08:29:57;-18091.41;;;2.37;100.00
24746;BME280;12845;52.042;6.838;2023-02-24T08:34:57;-18091.81;;;2.38;100.00
24746;BME280;12845;52.042;6.838;2023-02-24T08:37:26;-18092.38;;;2.40;100.00
24746;BME280;12845;52.042;6.838;2023-02-24T08:39:57;-18093.19;;;2.43;100.00
24746;BME280;12845;52.042;6.838;2023-02-24T08:42:22;-18092.09;;;2.39;100.00
24746;BME280;12845;52.042;6.838;2023-02-24T08:44:55;-18092.25;;;2.40;100.00
24746;BME280;12845;52.042;6.838;2023-02-24T08:47:22;-18092.66;;;2.41;100.00
24746;BME280;12845;52.042;6.838;2023-02-24T08:49:54;-18092.94;;;2.42;100.00
24746;BME280;12845;52.042;6.838;2023-02-24T08:52:20;-18093.19;;;2.43;100.00
24746;BME280;12845;52.042;6.838;2023-02-24T08:54:45;-18093.19;;;2.43;100.00
24746;BME280;12845;52.042;6.838;2023-02-24T08:57:13;-18092.78;;;2.42;100.00
24746;BME280;12845;52.042;6.838;2023-02-24T08:59:42;-18092.66;;;2.41;100.00
24746;BME280;12845;52.042;6.838;2023-02-24T09:02:17;-18091.28;;;2.36;100.00
24746;BME280;12845;52.042;6.838;2023-02-24T09:04:44;-18090.72;;;2.34;100.00
24746;BME280;12845;52.042;6.838;2023-02-24T09:07:14;-18089.59;;;2.30;100.00
24746;BME280;12845;52.042;6.838;2023-02-24T09:09:39;-18089.88;;;2.31;100.00
24746;BME280;12845;52.042;6.838;2023-02-24T09:12:06;-18089.34;;;2.29;100.00
24746;BME280;12845;52.042;6.838;2023-02-24T09:14:32;-18090.28;;;2.33;100.00
24746;BME280;12845;52.042;6.838;2023-02-24T09:17:02;-18089.59;;;2.30;100.00
24746;BME280;12845;52.042;6.838;2023-02-24T09:19:40;-18088.78;;;2.27;100.00
24746;BME280;12845;52.042;6.838;2023-02-24T09:22:27;-18090.03;;;2.32;100.00
24746;BME280;12845;52.042;6.838;2023-02-24T09:25:05;-18088.50;;;2.26;100.00
24746;BME280;12845;52.042;6.838;2023-02-24T09:28:03;-18088.91;;;2.28;100.00
24746;BME280;12845;52.042;6.838;2023-02-24T09:30:32;-18088.50;;;2.26;100.00
24746;BME280;12845;52.042;6.838;2023-02-24T09:33:11;-18088.22;;;2.25;100.00
24746;BME280;12845;52.042;6.838;2023-02-24T09:35:43;-18088.09;;;2.24;100.00
24746;BME280;12845;52.042;6.838;2023-02-24T09:38:10;-18088.50;;;2.26;100.00
24746;BME280;12845;52.042;6.838;2023-02-24T09:40:40;-18089.06;;;2.28;100.00
24746;BME280;12845;52.042;6.838;2023-02-24T09:43:12;-18088.78;;;2.27;100.00
24746;BME280;12845;52.042;6.838;2023-02-24T09:46:17;-18088.78;;;2.27;100.00
24746;BME280;12845;52.042;6.838;2023-02-24T09:48:43;-18088.38;;;2.25;100.00
24746;BME280;12845;52.042;6.838;2023-02-24T09:51:12;-18087.94;;;2.24;100.00
24746;BME280;12845;52.042;6.838;2023-02-24T09:53:45;-18088.38;;;2.25;100.00
24746;BME280;12845;52.042;6.838;2023-02-24T09:58:42;-18087.66;;;2.23;100.00
24746;BME280;12845;52.042;6.838;2023-02-24T10:03:45;-18090.16;;;2.32;100.00
24746;BME280;12845;52.042;6.838;2023-02-24T10:06:19;-18092.09;;;2.39;100.00
24746;BME280;12845;52.042;6.838;2023-02-24T10:09:02;-18091.53;;;2.37;100.00
24746;BME280;12845;52.042;6.838;2023-02-24T10:11:37;-18092.66;;;2.41;100.00
24746;BME280;12845;52.042;6.838;2023-02-24T10:14:03;-18091.69;;;2.38;100.00
24746;BME280;12845;52.042;6.838;2023-02-24T10:16:31;-18091.41;;;2.37;100.00
24746;BME280;12845;52.042;6.838;2023-02-24T10:22:07;-18091.69;;;2.38;100.00
24746;BME280;12845;52.042;6.838;2023-02-24T10:24:50;-18092.78;;;2.42;100.00
24746;BME280;12845;52.042;6.838;2023-02-24T10:27:32;-18093.63;;;2.45;100.00
24746;BME280;12845;52.042;6.838;2023-02-24T10:35:00;-18095.00;;;2.50;100.00
24746;BME280;12845;52.042;6.838;2023-02-24T10:37:25;-18093.91;;;2.46;100.00
24746;BME280;12845;52.042;6.838;2023-02-24T10:39:56;-18094.31;;;2.47;100.00
24746;BME280;12845;52.042;6.838;2023-02-24T10:42:29;-18096.09;;;2.54;100.00
24746;BME280;12845;52.042;6.838;2023-02-24T10:45:13;-18096.25;;;2.55;100.00
24746;BME280;12845;52.042;6.838;2023-02-24T10:47:41;-18097.34;;;2.59;100.00
24746;BME280;12845;52.042;6.838;2023-02-24T10:50:41;-18096.25;;;2.55;100.00
24746;BME280;12845;52.042;6.838;2023-02-24T10:53:09;-18096.38;;;2.55;100.00
24746;BME280;12845;52.042;6.838;2023-02-24T10:55:49;-18097.63;;;2.60;100.00
24746;BME280;12845;52.042;6.838;2023-02-24T11:00:53;-18098.72;;;2.64;100.00
24746;BME280;12845;52.042;6.838;2023-02-24T11:03:36;-18101.09;;;2.72;100.00
24746;BME280;12845;52.042;6.838;2023-02-24T11:06:30;-18102.34;;;2.77;100.00
24746;BME280;12845;52.042;6.838;2023-02-24T11:09:04;-18101.91;;;2.76;100.00
24746;BME280;12845;52.042;6.838;2023-02-24T11:11:48;-18104.41;;;2.85;100.00
24746;BME280;12845;52.042;6.838;2023-02-24T11:14:33;-18104.00;;;2.83;100.00
24746;BME280;12845;52.042;6.838;2023-02-24T11:17:20;-18104.13;;;2.84;100.00
24746;BME280;12845;52.042;6.838;2023-02-24T11:19:57;-18104.25;;;2.84;100.00
24746;BME280;12845;52.042;6.838;2023-02-24T11:22:26;-18105.09;;;2.87;100.00
24746;BME280;12845;52.042;6.838;2023-02-24T11:24:55;-18104.81;;;2.86;100.00
24746;BME280;12845;52.042;6.838;2023-02-24T11:27:21;-18105.94;;;2.90;100.00
24746;BME280;12845;52.042;6.838;2023-02-24T11:32:40;-18107.88;;;2.98;100.00
24746;BME280;12845;52.042;6.838;2023-02-24T11:37:59;-18107.72;;;2.97;100.00
24746;BME280;12845;52.042;6.838;2023-02-24T11:40:26;-18108.97;;;3.02;100.00
24746;BME280;12845;52.042;6.838;2023-02-24T11:45:35;-18109.78;;;3.05;100.00
24746;BME280;12845;52.042;6.838;2023-02-24T11:48:09;-18109.53;;;3.04;100.00
24746;BME280;12845;52.042;6.838;2023-02-24T11:50:59;-18110.78;;;3.08;100.00
24746;BME280;12845;52.042;6.838;2023-02-24T11:53:30;-18111.31;;;3.10;100.00
24746;BME280;12845;52.042;6.838;2023-02-24T11:56:02;-18111.31;;;3.10;100.00
24746;BME280;12845;52.042;6.838;2023-02-24T12:01:12;-18111.59;;;3.11;100.00
24746;BME280;12845;52.042;6.838;2023-02-24T12:06:27;-18113.66;;;3.19;100.00
24746;BME280;12845;52.042;6.838;2023-02-24T12:08:56;-18115.31;;;3.25;100.00
24746;BME280;12845;52.042;6.838;2023-02-24T12:11:42;-18114.50;;;3.22;100.00
24746;BME280;12845;52.042;6.838;2023-02-24T12:14:24;-18114.78;;;3.23;100.00
24746;BME280;12845;52.042;6.838;2023-02-24T12:16:53;-18115.59;;;3.26;100.00
24746;BME280;12845;52.042;6.838;2023-02-24T12:21:52;-18117.00;;;3.31;100.00
24746;BME280;12845;52.042;6.838;2023-02-24T12:24:20;-18117.25;;;3.32;100.00
24746;BME280;12845;52.042;6.838;2023-02-24T12:27:02;-18117.81;;;3.34;100.00
24746;BME280;12845;52.042;6.838;2023-02-24T12:34:52;-18118.91;;;3.38;100.00
24746;BME280;12845;52.042;6.838;2023-02-24T12:40:11;-18119.63;;;3.41;100.00
24746;BME280;12845;52.042;6.838;2023-02-24T12:42:45;-18121.13;;;3.47;100.00
24746;BME280;12845;52.042;6.838;2023-02-24T12:45:17;-18122.22;;;3.51;100.00
24746;BME280;12845;52.042;6.838;2023-02-24T12:50:33;-18123.75;;;3.56;100.00
24746;BME280;12845;52.042;6.838;2023-02-24T12:53:11;-18126.09;;;3.65;100.00
24746;BME280;12845;52.042;6.838;2023-02-24T12:55:53;-18127.78;;;3.71;100.00
24746;BME280;12845;52.042;6.838;2023-02-24T12:58:24;-18127.50;;;3.70;100.00
24746;BME280;12845;52.042;6.838;2023-02-24T13:03:23;-18129.56;;;3.78;100.00
24746;BME280;12845;52.042;6.838;2023-02-24T13:08:42;-18131.34;;;3.84;100.00
24746;BME280;12845;52.042;6.838;2023-02-24T13:13:51;-18134.81;;;3.97;100.00
24746;BME280;12845;52.042;6.838;2023-02-24T13:16:30;-18138.00;;;4.09;100.00
24746;BME280;12845;52.042;6.838;2023-02-24T13:19:03;-18141.72;;;4.23;100.00
24746;BME280;12845;52.042;6.838;2023-02-24T13:21:28;-18147.09;;;4.43;100.00
24746;BME280;12845;52.042;6.838;2023-02-24T13:23:57;-18149.31;;;4.51;100.00
24746;BME280;12845;52.042;6.838;2023-02-24T13:26:25;-18150.41;;;4.55;100.00
24746;BME280;12845;52.042;6.838;2023-02-24T13:28:58;-18152.22;;;4.62;100.00
24746;BME280;12845;52.042;6.838;2023-02-24T13:31:24;-18152.22;;;4.62;100.00
24746;BME280;12845;52.042;6.838;2023-02-24T13:33:50;-18151.78;;;4.60;100.00
24746;BME280;12845;52.042;6.838;2023-02-24T13:38:46;-18154.69;;;4.71;100.00
24746;BME280;12845;52.042;6.838;2023-02-24T13:43:56;-18159.94;;;4.90;100.00
24746;BME280;12845;52.042;6.838;2023-02-24T13:46:22;-18161.75;;;4.97;100.00
24746;BME280;12845;52.042;6.838;2023-02-24T13:49:31;-18162.03;;;4.98;100.00
24746;BME280;12845;52.042;6.838;2023-02-24T13:51:54;-18161.59;;;4.96;100.00
24746;BME280;12845;52.042;6.838;2023-02-24T14:02:15;-18162.56;;;5.00;100.00
24746;BME280;12845;52.042;6.838;2023-02-24T14:04:48;-18163.69;;;5.04;100.00
24746;BME280;12845;52.042;6.838;2023-02-24T14:07:17;-18166.16;;;5.13;100.00
24746;BME280;12845;52.042;6.838;2023-02-24T14:09:44;-18167.81;;;5.19;100.00
24746;BME280;12845;52.042;6.838;2023-02-24T14:12:33;-18169.19;;;5.25;100.00
24746;BME280;12845;52.042;6.838;2023-02-24T14:14:56;-18170.16;;;5.28;100.00
24746;BME280;12845;52.042;6.838;2023-02-24T14:19:52;-18169.59;;;5.26;100.00
24746;BME280;12845;52.042;6.838;2023-02-24T14:22:18;-18169.06;;;5.24;100.00
24746;BME280;12845;52.042;6.838;2023-02-24T14:24:44;-18169.47;;;5.26;100.00
24746;BME280;12845;52.042;6.838;2023-02-24T14:27:15;-18169.06;;;5.24;100.00
24746;BME280;12845;52.042;6.838;2023-02-24T14:29:44;-18169.47;;;5.26;100.00
24746;BME280;12845;52.042;6.838;2023-02-24T14:32:14;-18170.03;;;5.28;100.00
24746;BME280;12845;52.042;6.838;2023-02-24T14:34:44;-18170.03;;;5.28;100.00
24746;BME280;12845;52.042;6.838;2023-02-24T14:37:09;-18170.03;;;5.28;100.00
24746;BME280;12845;52.042;6.838;2023-02-24T14:39:40;-18172.38;;;5.36;100.00
24746;BME280;12845;52.042;6.838;2023-02-24T14:42:13;-18174.56;;;5.45;100.00
24746;BME280;12845;52.042;6.838;2023-02-24T14:44:46;-18173.88;;;5.42;100.00
24746;BME280;12845;52.042;6.838;2023-02-24T14:47:12;-18178.03;;;5.57;100.00
24746;BME280;12845;52.042;6.838;2023-02-24T14:49:38;-18183.97;;;5.79;100.00
24746;BME280;12845;52.042;6.838;2023-02-24T14:57:18;-18182.72;;;5.75;100.00
24746;BME280;12845;52.042;6.838;2023-02-24T14:59:46;-18182.31;;;5.73;100.00
24746;BME280;12845;52.042;6.838;2023-02-24T15:02:13;-18182.16;;;5.73;100.00